sensor_id;sensor_type;location;lat;lon;timestamp;P1;durP1;ratioP1;P2;durP2;ratioP2
5762;SDS011;2906;53.282;9.508;2023-04-15T00:00:56;21.35;;;9.68;;
5762;SDS011;2906;53.282;9.508;2023-04-15T00:01:58;19.30;;;9.23;;
5762;SDS011;2906;53.282;9.508;2023-04-15T00:03:00;18.65;;;8.52;;
5762;SDS011;2906;53.282;9.508;2023-04-15T00:04:02;21.00;;;9.40;;
5762;SDS011;2906;53.282;9.508;2023-04-15T00:05:04;18.55;;;8.32;;
5762;SDS011;2906;53.282;9.508;2023-04-15T00:06:06;19.25;;;8.30;;
5762;SDS011;2906;53.282;9.508;2023-04-15T00:07:08;21.95;;;8.50;;
5762;SDS011;2906;53.282;9.508;2023-04-15T00:08:11;18.92;;;8.52;;
5762;SDS011;2906;53.282;9.508;2023-04-15T00:09:14;19.00;;;8.95;;
5762;SDS011;2906;53.282;9.508;2023-04-15T00:10:16;20.85;;;8.80;;
5762;SDS011;2906;53.282;9.508;2023-04-15T00:11:18;20.30;;;9.23;;
5762;SDS011;2906;53.282;9.508;2023-04-15T00:12:20;19.98;;;8.57;;
5762;SDS011;2906;53.282;9.508;2023-04-15T00:13:23;20.20;;;9.20;;
5762;SDS011;2906;53.282;9.508;2023-04-15T00:14:25;19.85;;;8.43;;
5762;SDS011;2906;53.282;9.508;2023-04-15T00:15:27;20.45;;;8.38;;
5762;SDS011;2906;53.282;9.508;2023-04-15T00:16:29;19.73;;;9.40;;
5762;SDS011;2906;53.282;9.508;2023-04-15T00:17:31;22.42;;;9.43;;
5762;SDS011;2906;53.282;9.508;2023-04-15T00:18:33;18.63;;;9.40;;
5762;SDS011;2906;53.282;9.508;2023-04-15T00:19:34;20.17;;;9.40;;
5762;SDS011;2906;53.282;9.508;2023-04-15T00:20:37;22.20;;;9.88;;
5762;SDS011;2906;53.282;9.508;2023-04-15T00:21:38;21.67;;;10.18;;
5762;SDS011;2906;53.282;9.508;2023-04-15T00:22:41;24.70;;;10.13;;
5762;SDS011;2906;53.282;9.508;2023-04-15T00:23:42;21.45;;;10.10;;
5762;SDS011;2906;53.282;9.508;2023-04-15T00:24:50;23.05;;;10.23;;
5762;SDS011;2906;53.282;9.508;2023-04-15T00:25:51;21.52;;;10.40;;
5762;SDS011;2906;53.282;9.508;2023-04-15T00:26:54;21.90;;;10.10;;
5762;SDS011;2906;53.282;9.508;2023-04-15T00:27:55;24.83;;;10.30;;
5762;SDS011;2906;53.282;9.508;2023-04-15T00:28:57;21.65;;;9.48;;
5762;SDS011;2906;53.282;9.508;2023-04-15T00:29:59;23.58;;;10.45;;
5762;SDS011;2906;53.282;9.508;2023-04-15T00:31:01;28.05;;;10.80;;
5762;SDS011;2906;53.282;9.508;2023-04-15T00:32:03;26.88;;;10.13;;
5762;SDS011;2906;53.282;9.508;2023-04-15T00:33:05;22.73;;;9.35;;
5762;SDS011;2906;53.282;9.508;2023-04-15T00:34:07;26.42;;;10.45;;
5762;SDS011;2906;53.282;9.508;2023-04-15T00:35:10;24.73;;;10.38;;
5762;SDS011;2906;53.282;9.508;2023-04-15T00:36:12;21.35;;;9.43;;
5762;SDS011;2906;53.282;9.508;2023-04-15T00:37:13;23.38;;;9.27;;
5762;SDS011;2906;53.282;9.508;2023-04-15T00:38:16;22.67;;;10.55;;
5762;SDS011;2906;53.282;9.508;2023-04-15T00:39:17;20.48;;;9.57;;
5762;SDS011;2906;53.282;9.508;2023-04-15T00:40:21;23.92;;;9.50;;
5762;SDS011;2906;53.282;9.508;2023-04-15T00:41:23;24.17;;;9.95;;
5762;SDS011;2906;53.282;9.508;2023-04-15T00:42:26;22.73;;;10.23;;
5762;SDS011;2906;53.282;9.508;2023-04-15T00:43:27;23.13;;;10.30;;
5762;SDS011;2906;53.282;9.508;2023-04-15T00:44:29;20.20;;;9.27;;
5762;SDS011;2906;53.282;9.508;2023-04-15T00:45:31;21.25;;;9.43;;
5762;SDS011;2906;53.282;9.508;2023-04-15T00:46:34;22.75;;;10.00;;
5762;SDS011;2906;53.282;9.508;2023-04-15T00:47:36;20.45;;;9.15;;
5762;SDS011;2906;53.282;9.508;2023-04-15T00:48:39;24.48;;;10.75;;
5762;SDS011;2906;53.282;9.508;2023-04-15T00:49:40;23.60;;;9.48;;
5762;SDS011;2906;53.282;9.508;2023-04-15T00:50:44;21.23;;;10.30;;
5762;SDS011;2906;53.282;9.508;2023-04-15T00:51:45;21.42;;;9.25;;
5762;SDS011;2906;53.282;9.508;2023-04-15T00:52:48;19.88;;;8.68;;
5762;SDS011;2906;53.282;9.508;2023-04-15T00:53:49;20.95;;;10.10;;
5762;SDS011;2906;53.282;9.508;2023-04-15T00:54:52;18.05;;;8.23;;
5762;SDS011;2906;53.282;9.508;2023-04-15T00:55:54;19.17;;;8.90;;
5762;SDS011;2906;53.282;9.508;2023-04-15T00:57:00;17.63;;;8.60;;
5762;SDS011;2906;53.282;9.508;2023-04-15T00:58:02;20.52;;;8.55;;
5762;SDS011;2906;53.282;9.508;2023-04-15T00:59:05;17.63;;;7.70;;
5762;SDS011;2906;53.282;9.508;2023-04-15T01:00:07;23.23;;;8.60;;
5762;SDS011;2906;53.282;9.508;2023-04-15T01:01:10;19.00;;;8.65;;
5762;SDS011;2906;53.282;9.508;2023-04-15T01:02:12;22.30;;;9.35;;
5762;SDS011;2906;53.282;9.508;2023-04-15T01:03:14;21.48;;;9.00;;
5762;SDS011;2906;53.282;9.508;2023-04-15T01:04:15;22.08;;;8.68;;
5762;SDS011;2906;53.282;9.508;2023-04-15T01:05:20;25.30;;;8.05;;
5762;SDS011;2906;53.282;9.508;2023-04-15T01:06:23;17.45;;;8.10;;
5762;SDS011;2906;53.282;9.508;2023-04-15T01:07:26;17.38;;;7.93;;
5762;SDS011;2906;53.282;9.508;2023-04-15T01:08:27;20.05;;;9.00;;
5762;SDS011;2906;53.282;9.508;2023-04-15T01:09:30;17.60;;;7.90;;
5762;SDS011;2906;53.282;9.508;2023-04-15T01:10:32;19.55;;;8.18;;
5762;SDS011;2906;53.282;9.508;2023-04-15T01:11:37;19.05;;;8.00;;
5762;SDS011;2906;53.282;9.508;2023-04-15T01:12:39;17.70;;;8.30;;
5762;SDS011;2906;53.282;9.508;2023-04-15T01:13:41;18.95;;;8.82;;
5762;SDS011;2906;53.282;9.508;2023-04-15T01:14:42;18.92;;;7.70;;
5762;SDS011;2906;53.282;9.508;2023-04-15T01:15:45;18.30;;;7.97;;
5762;SDS011;2906;53.282;9.508;2023-04-15T01:16:47;19.58;;;7.18;;
5762;SDS011;2906;53.282;9.508;2023-04-15T01:17:50;17.08;;;7.88;;
5762;SDS011;2906;53.282;9.508;2023-04-15T01:18:51;18.52;;;7.75;;
5762;SDS011;2906;53.282;9.508;2023-04-15T01:19:54;21.83;;;9.07;;
5762;SDS011;2906;53.282;9.508;2023-04-15T01:20:56;20.98;;;8.90;;
5762;SDS011;2906;53.282;9.508;2023-04-15T01:21:58;18.83;;;8.07;;
5762;SDS011;2906;53.282;9.508;2023-04-15T01:23:00;17.65;;;7.65;;
5762;SDS011;2906;53.282;9.508;2023-04-15T01:24:03;18.15;;;8.13;;
5762;SDS011;2906;53.282;9.508;2023-04-15T01:25:09;21.20;;;8.55;;
5762;SDS011;2906;53.282;9.508;2023-04-15T01:26:13;18.17;;;7.90;;
5762;SDS011;2906;53.282;9.508;2023-04-15T01:27:15;18.45;;;8.75;;
5762;SDS011;2906;53.282;9.508;2023-04-15T01:28:18;18.50;;;8.60;;
5762;SDS011;2906;53.282;9.508;2023-04-15T01:29:19;18.80;;;8.30;;
5762;SDS011;2906;53.282;9.508;2023-04-15T01:30:22;20.83;;;8.40;;
5762;SDS011;2906;53.282;9.508;2023-04-15T01:31:23;24.40;;;9.57;;
5762;SDS011;2906;53.282;9.508;2023-04-15T01:32:26;19.88;;;9.00;;
5762;SDS011;2906;53.282;9.508;2023-04-15T01:33:28;19.75;;;8.23;;
5762;SDS011;2906;53.282;9.508;2023-04-15T01:34:30;19.42;;;8.57;;
5762;SDS011;2906;53.282;9.508;2023-04-15T01:35:31;21.45;;;9.63;;
5762;SDS011;2906;53.282;9.508;2023-04-15T01:36:34;16.35;;;7.57;;
5762;SDS011;2906;53.282;9.508;2023-04-15T01:37:36;22.23;;;9.15;;
5762;SDS011;2906;53.282;9.508;2023-04-15T01:38:38;20.98;;;9.30;;
5762;SDS011;2906;53.282;9.508;2023-04-15T01:39:40;18.85;;;7.90;;
5762;SDS011;2906;53.282;9.508;2023-04-15T01:40:43;21.27;;;9.15;;
5762;SDS011;2906;53.282;9.508;2023-04-15T01:41:46;22.67;;;9.30;;
5762;SDS011;2906;53.282;9.508;2023-04-15T01:42:48;21.35;;;9.02;;
5762;SDS011;2906;53.282;9.508;2023-04-15T01:43:50;20.60;;;9.88;;
5762;SDS011;2906;53.282;9.508;2023-04-15T01:44:52;19.90;;;9.25;;
5762;SDS011;2906;53.282;9.508;2023-04-15T01:45:54;22.50;;;9.52;;
5762;SDS011;2906;53.282;9.508;2023-04-15T01:46:56;21.90;;;8.93;;
5762;SDS011;2906;53.282;9.508;2023-04-15T01:47:58;22.52;;;10.45;;
5762;SDS011;2906;53.282;9.508;2023-04-15T01:49:00;19.17;;;8.48;;
5762;SDS011;2906;53.282;9.508;2023-04-15T01:50:01;21.05;;;8.73;;
5762;SDS011;2906;53.282;9.508;2023-04-15T01:51:04;21.90;;;10.73;;
5762;SDS011;2906;53.282;9.508;2023-04-15T01:52:05;23.58;;;10.32;;
5762;SDS011;2906;53.282;9.508;2023-04-15T01:53:08;20.13;;;9.60;;
5762;SDS011;2906;53.282;9.508;2023-04-15T01:54:10;18.45;;;8.70;;
5762;SDS011;2906;53.282;9.508;2023-04-15T01:55:12;21.00;;;9.73;;
5762;SDS011;2906;53.282;9.508;2023-04-15T01:56:13;25.20;;;10.60;;
5762;SDS011;2906;53.282;9.508;2023-04-15T01:57:17;21.55;;;9.40;;
5762;SDS011;2906;53.282;9.508;2023-04-15T01:58:18;21.33;;;9.30;;
5762;SDS011;2906;53.282;9.508;2023-04-15T01:59:21;20.40;;;8.82;;
5762;SDS011;2906;53.282;9.508;2023-04-15T02:00:23;22.30;;;9.73;;
5762;SDS011;2906;53.282;9.508;2023-04-15T02:01:25;22.27;;;9.85;;
5762;SDS011;2906;53.282;9.508;2023-04-15T02:02:27;21.98;;;9.07;;
5762;SDS011;2906;53.282;9.508;2023-04-15T02:03:29;20.88;;;9.07;;
5762;SDS011;2906;53.282;9.508;2023-04-15T02:04:31;24.55;;;9.98;;
5762;SDS011;2906;53.282;9.508;2023-04-15T02:05:33;20.33;;;9.10;;
5762;SDS011;2906;53.282;9.508;2023-04-15T02:06:35;21.25;;;9.75;;
5762;SDS011;2906;53.282;9.508;2023-04-15T02:07:37;22.55;;;9.32;;
5762;SDS011;2906;53.282;9.508;2023-04-15T02:08:38;20.77;;;8.52;;
5762;SDS011;2906;53.282;9.508;2023-04-15T02:09:41;22.58;;;9.45;;
5762;SDS011;2906;53.282;9.508;2023-04-15T02:10:42;22.38;;;7.80;;
5762;SDS011;2906;53.282;9.508;2023-04-15T02:11:44;18.05;;;8.18;;
5762;SDS011;2906;53.282;9.508;2023-04-15T02:12:47;18.45;;;7.95;;
5762;SDS011;2906;53.282;9.508;2023-04-15T02:13:50;22.15;;;8.95;;
5762;SDS011;2906;53.282;9.508;2023-04-15T02:14:51;17.88;;;7.43;;
5762;SDS011;2906;53.282;9.508;2023-04-15T02:15:55;19.33;;;7.55;;
5762;SDS011;2906;53.282;9.508;2023-04-15T02:16:56;19.15;;;8.65;;
5762;SDS011;2906;53.282;9.508;2023-04-15T02:18:06;19.80;;;8.27;;
5762;SDS011;2906;53.282;9.508;2023-04-15T02:19:07;18.98;;;8.00;;
5762;SDS011;2906;53.282;9.508;2023-04-15T02:20:09;18.98;;;8.45;;
5762;SDS011;2906;53.282;9.508;2023-04-15T02:21:11;20.40;;;8.45;;
5762;SDS011;2906;53.282;9.508;2023-04-15T02:22:13;20.92;;;7.70;;
5762;SDS011;2906;53.282;9.508;2023-04-15T02:23:17;18.70;;;8.30;;
5762;SDS011;2906;53.282;9.508;2023-04-15T02:24:19;16.98;;;7.85;;
5762;SDS011;2906;53.282;9.508;2023-04-15T02:25:22;21.23;;;8.63;;
5762;SDS011;2906;53.282;9.508;2023-04-15T02:26:23;19.27;;;7.57;;
5762;SDS011;2906;53.282;9.508;2023-04-15T02:27:25;19.38;;;8.02;;
5762;SDS011;2906;53.282;9.508;2023-04-15T02:28:29;18.67;;;8.23;;
5762;SDS011;2906;53.282;9.508;2023-04-15T02:29:31;14.57;;;7.05;;
5762;SDS011;2906;53.282;9.508;2023-04-15T02:30:32;18.50;;;7.80;;
5762;SDS011;2906;53.282;9.508;2023-04-15T02:31:35;18.67;;;8.30;;
5762;SDS011;2906;53.282;9.508;2023-04-15T02:32:39;18.60;;;7.85;;
5762;SDS011;2906;53.282;9.508;2023-04-15T02:33:44;19.90;;;8.18;;
5762;SDS011;2906;53.282;9.508;2023-04-15T02:34:45;21.55;;;8.90;;
5762;SDS011;2906;53.282;9.508;2023-04-15T02:35:48;19.73;;;7.63;;
5762;SDS011;2906;53.282;9.508;2023-04-15T02:36:49;28.23;;;10.10;;
5762;SDS011;2906;53.282;9.508;2023-04-15T02:37:56;21.30;;;8.65;;
5762;SDS011;2906;53.282;9.508;2023-04-15T02:38:57;21.35;;;9.52;;
5762;SDS011;2906;53.282;9.508;2023-04-15T02:39:59;22.80;;;9.35;;
5762;SDS011;2906;53.282;9.508;2023-04-15T02:41:01;22.08;;;9.43;;
5762;SDS011;2906;53.282;9.508;2023-04-15T02:42:04;20.90;;;9.45;;
5762;SDS011;2906;53.282;9.508;2023-04-15T02:43:05;21.02;;;9.30;;
5762;SDS011;2906;53.282;9.508;2023-04-15T02:44:09;22.17;;;9.13;;
5762;SDS011;2906;53.282;9.508;2023-04-15T02:45:12;20.55;;;9.40;;
5762;SDS011;2906;53.282;9.508;2023-04-15T02:46:14;22.55;;;11.07;;
5762;SDS011;2906;53.282;9.508;2023-04-15T02:47:16;19.52;;;8.70;;
5762;SDS011;2906;53.282;9.508;2023-04-15T02:48:18;23.25;;;10.48;;
5762;SDS011;2906;53.282;9.508;2023-04-15T02:49:21;23.88;;;10.88;;
5762;SDS011;2906;53.282;9.508;2023-04-15T02:50:23;23.83;;;11.07;;
5762;SDS011;2906;53.282;9.508;2023-04-15T02:51:24;24.75;;;11.15;;
5762;SDS011;2906;53.282;9.508;2023-04-15T02:52:27;24.52;;;10.98;;
5762;SDS011;2906;53.282;9.508;2023-04-15T02:53:28;22.65;;;10.80;;
5762;SDS011;2906;53.282;9.508;2023-04-15T02:54:30;23.50;;;11.07;;
5762;SDS011;2906;53.282;9.508;2023-04-15T02:55:33;24.20;;;10.93;;
5762;SDS011;2906;53.282;9.508;2023-04-15T02:56:35;26.20;;;11.50;;
5762;SDS011;2906;53.282;9.508;2023-04-15T02:57:36;28.48;;;12.20;;
5762;SDS011;2906;53.282;9.508;2023-04-15T02:58:40;23.92;;;10.98;;
5762;SDS011;2906;53.282;9.508;2023-04-15T02:59:43;23.27;;;11.20;;
5762;SDS011;2906;53.282;9.508;2023-04-15T03:00:45;24.77;;;11.20;;
5762;SDS011;2906;53.282;9.508;2023-04-15T03:01:50;25.80;;;11.38;;
5762;SDS011;2906;53.282;9.508;2023-04-15T03:02:56;24.20;;;10.95;;
5762;SDS011;2906;53.282;9.508;2023-04-15T03:03:58;24.00;;;11.55;;
5762;SDS011;2906;53.282;9.508;2023-04-15T03:05:00;23.02;;;11.50;;
5762;SDS011;2906;53.282;9.508;2023-04-15T03:06:01;25.95;;;12.13;;
5762;SDS011;2906;53.282;9.508;2023-04-15T03:07:04;24.63;;;11.90;;
5762;SDS011;2906;53.282;9.508;2023-04-15T03:08:05;24.45;;;11.18;;
5762;SDS011;2906;53.282;9.508;2023-04-15T03:09:08;23.65;;;11.43;;
5762;SDS011;2906;53.282;9.508;2023-04-15T03:10:09;23.42;;;11.20;;
5762;SDS011;2906;53.282;9.508;2023-04-15T03:11:11;23.02;;;11.05;;
5762;SDS011;2906;53.282;9.508;2023-04-15T03:12:14;29.00;;;11.48;;
5762;SDS011;2906;53.282;9.508;2023-04-15T03:13:15;25.25;;;11.90;;
5762;SDS011;2906;53.282;9.508;2023-04-15T03:14:17;23.15;;;10.90;;
5762;SDS011;2906;53.282;9.508;2023-04-15T03:15:20;22.75;;;10.40;;
5762;SDS011;2906;53.282;9.508;2023-04-15T03:16:22;23.27;;;11.45;;
5762;SDS011;2906;53.282;9.508;2023-04-15T03:17:23;25.17;;;11.50;;
5762;SDS011;2906;53.282;9.508;2023-04-15T03:18:26;22.98;;;10.88;;
5762;SDS011;2906;53.282;9.508;2023-04-15T03:19:28;24.50;;;11.45;;
5762;SDS011;2906;53.282;9.508;2023-04-15T03:20:30;23.25;;;10.52;;
5762;SDS011;2906;53.282;9.508;2023-04-15T03:21:32;21.77;;;10.68;;
5762;SDS011;2906;53.282;9.508;2023-04-15T03:22:34;24.67;;;11.68;;
5762;SDS011;2906;53.282;9.508;2023-04-15T03:23:35;21.40;;;10.20;;
5762;SDS011;2906;53.282;9.508;2023-04-15T03:24:37;25.05;;;11.45;;
5762;SDS011;2906;53.282;9.508;2023-04-15T03:25:39;26.08;;;11.18;;
5762;SDS011;2906;53.282;9.508;2023-04-15T03:26:41;23.08;;;11.63;;
5762;SDS011;2906;53.282;9.508;2023-04-15T03:27:42;25.67;;;11.43;;
5762;SDS011;2906;53.282;9.508;2023-04-15T03:28:45;25.98;;;12.07;;
5762;SDS011;2906;53.282;9.508;2023-04-15T03:29:48;27.70;;;10.95;;
5762;SDS011;2906;53.282;9.508;2023-04-15T03:30:52;25.88;;;11.63;;
5762;SDS011;2906;53.282;9.508;2023-04-15T03:31:53;27.17;;;11.02;;
5762;SDS011;2906;53.282;9.508;2023-04-15T03:32:56;25.52;;;12.25;;
5762;SDS011;2906;53.282;9.508;2023-04-15T03:33:57;23.42;;;11.30;;
5762;SDS011;2906;53.282;9.508;2023-04-15T03:34:59;23.25;;;10.60;;
5762;SDS011;2906;53.282;9.508;2023-04-15T03:36:01;22.58;;;10.88;;
5762;SDS011;2906;53.282;9.508;2023-04-15T03:37:04;24.92;;;10.82;;
5762;SDS011;2906;53.282;9.508;2023-04-15T03:38:06;25.70;;;11.70;;
5762;SDS011;2906;53.282;9.508;2023-04-15T03:39:08;23.60;;;11.23;;
5762;SDS011;2906;53.282;9.508;2023-04-15T03:40:10;28.30;;;11.95;;
5762;SDS011;2906;53.282;9.508;2023-04-15T03:41:12;24.85;;;11.45;;
5762;SDS011;2906;53.282;9.508;2023-04-15T03:42:14;23.50;;;10.93;;
5762;SDS011;2906;53.282;9.508;2023-04-15T03:43:15;26.05;;;11.10;;
5762;SDS011;2906;53.282;9.508;2023-04-15T03:44:18;25.30;;;12.43;;
5762;SDS011;2906;53.282;9.508;2023-04-15T03:45:19;24.02;;;11.10;;
5762;SDS011;2906;53.282;9.508;2023-04-15T03:46:26;33.20;;;12.95;;
5762;SDS011;2906;53.282;9.508;2023-04-15T03:47:27;26.08;;;12.35;;
5762;SDS011;2906;53.282;9.508;2023-04-15T03:48:30;27.05;;;12.40;;
5762;SDS011;2906;53.282;9.508;2023-04-15T03:49:31;25.48;;;11.77;;
5762;SDS011;2906;53.282;9.508;2023-04-15T03:50:33;25.15;;;11.55;;
5762;SDS011;2906;53.282;9.508;2023-04-15T03:51:34;24.48;;;10.90;;
5762;SDS011;2906;53.282;9.508;2023-04-15T03:52:37;27.15;;;11.63;;
5762;SDS011;2906;53.282;9.508;2023-04-15T03:53:38;23.77;;;10.73;;
5762;SDS011;2906;53.282;9.508;2023-04-15T03:54:40;27.75;;;12.35;;
5762;SDS011;2906;53.282;9.508;2023-04-15T03:55:42;25.55;;;11.65;;
5762;SDS011;2906;53.282;9.508;2023-04-15T03:56:44;27.83;;;12.05;;
5762;SDS011;2906;53.282;9.508;2023-04-15T03:57:46;27.77;;;12.23;;
5762;SDS011;2906;53.282;9.508;2023-04-15T03:58:48;26.15;;;11.10;;
5762;SDS011;2906;53.282;9.508;2023-04-15T03:59:49;29.80;;;12.65;;
5762;SDS011;2906;53.282;9.508;2023-04-15T04:00:52;24.92;;;12.40;;
5762;SDS011;2906;53.282;9.508;2023-04-15T04:01:55;25.38;;;11.25;;
5762;SDS011;2906;53.282;9.508;2023-04-15T04:02:57;26.27;;;12.68;;
5762;SDS011;2906;53.282;9.508;2023-04-15T04:03:58;25.58;;;11.50;;
5762;SDS011;2906;53.282;9.508;2023-04-15T04:05:01;25.02;;;11.80;;
5762;SDS011;2906;53.282;9.508;2023-04-15T04:06:03;23.08;;;10.30;;
5762;SDS011;2906;53.282;9.508;2023-04-15T04:07:05;25.42;;;10.98;;
5762;SDS011;2906;53.282;9.508;2023-04-15T04:08:06;26.30;;;11.90;;
5762;SDS011;2906;53.282;9.508;2023-04-15T04:09:10;23.17;;;10.25;;
5762;SDS011;2906;53.282;9.508;2023-04-15T04:10:11;24.40;;;10.82;;
5762;SDS011;2906;53.282;9.508;2023-04-15T04:11:19;23.85;;;9.75;;
5762;SDS011;2906;53.282;9.508;2023-04-15T04:12:21;25.80;;;10.88;;
5762;SDS011;2906;53.282;9.508;2023-04-15T04:13:23;22.67;;;10.88;;
5762;SDS011;2906;53.282;9.508;2023-04-15T04:14:24;25.20;;;11.35;;
5762;SDS011;2906;53.282;9.508;2023-04-15T04:15:28;25.73;;;9.80;;
5762;SDS011;2906;53.282;9.508;2023-04-15T04:16:30;21.42;;;9.80;;
5762;SDS011;2906;53.282;9.508;2023-04-15T04:17:33;23.92;;;10.70;;
5762;SDS011;2906;53.282;9.508;2023-04-15T04:18:35;27.50;;;10.43;;
5762;SDS011;2906;53.282;9.508;2023-04-15T04:19:38;24.42;;;10.95;;
5762;SDS011;2906;53.282;9.508;2023-04-15T04:20:40;25.10;;;11.00;;
5762;SDS011;2906;53.282;9.508;2023-04-15T04:21:42;21.05;;;9.23;;
5762;SDS011;2906;53.282;9.508;2023-04-15T04:22:43;23.40;;;10.25;;
5762;SDS011;2906;53.282;9.508;2023-04-15T04:23:45;23.33;;;9.13;;
5762;SDS011;2906;53.282;9.508;2023-04-15T04:24:47;21.02;;;9.20;;
5762;SDS011;2906;53.282;9.508;2023-04-15T04:25:49;21.85;;;9.45;;
5762;SDS011;2906;53.282;9.508;2023-04-15T04:26:50;24.80;;;10.50;;
5762;SDS011;2906;53.282;9.508;2023-04-15T04:27:53;22.80;;;10.25;;
5762;SDS011;2906;53.282;9.508;2023-04-15T04:28:54;23.00;;;10.75;;
5762;SDS011;2906;53.282;9.508;2023-04-15T04:29:56;23.85;;;9.90;;
5762;SDS011;2906;53.282;9.508;2023-04-15T04:30:57;24.00;;;9.55;;
5762;SDS011;2906;53.282;9.508;2023-04-15T04:32:00;22.65;;;9.45;;
5762;SDS011;2906;53.282;9.508;2023-04-15T04:33:02;24.23;;;10.15;;
5762;SDS011;2906;53.282;9.508;2023-04-15T04:34:05;22.40;;;9.18;;
5762;SDS011;2906;53.282;9.508;2023-04-15T04:35:07;23.80;;;9.63;;
5762;SDS011;2906;53.282;9.508;2023-04-15T04:36:09;22.80;;;9.38;;
5762;SDS011;2906;53.282;9.508;2023-04-15T04:37:11;22.00;;;8.63;;
5762;SDS011;2906;53.282;9.508;2023-04-15T04:38:12;22.00;;;10.15;;
5762;SDS011;2906;53.282;9.508;2023-04-15T04:39:14;22.60;;;9.40;;
5762;SDS011;2906;53.282;9.508;2023-04-15T04:40:16;30.02;;;9.68;;
5762;SDS011;2906;53.282;9.508;2023-04-15T04:41:18;22.98;;;9.70;;
5762;SDS011;2906;53.282;9.508;2023-04-15T04:42:19;21.25;;;8.52;;
5762;SDS011;2906;53.282;9.508;2023-04-15T04:43:22;21.35;;;8.85;;
5762;SDS011;2906;53.282;9.508;2023-04-15T04:44:23;16.55;;;7.43;;
5762;SDS011;2906;53.282;9.508;2023-04-15T04:45:26;20.65;;;8.95;;
5762;SDS011;2906;53.282;9.508;2023-04-15T04:46:27;22.63;;;8.40;;
5762;SDS011;2906;53.282;9.508;2023-04-15T04:47:29;23.40;;;9.55;;
5762;SDS011;2906;53.282;9.508;2023-04-15T04:48:32;19.30;;;8.15;;
5762;SDS011;2906;53.282;9.508;2023-04-15T04:49:34;19.05;;;7.63;;
5762;SDS011;2906;53.282;9.508;2023-04-15T04:50:36;25.83;;;9.60;;
5762;SDS011;2906;53.282;9.508;2023-04-15T04:51:38;23.02;;;9.35;;
5762;SDS011;2906;53.282;9.508;2023-04-15T04:52:39;20.08;;;8.68;;
5762;SDS011;2906;53.282;9.508;2023-04-15T04:53:41;17.52;;;7.68;;
5762;SDS011;2906;53.282;9.508;2023-04-15T04:54:43;21.00;;;9.15;;
5762;SDS011;2906;53.282;9.508;2023-04-15T04:55:46;19.30;;;8.18;;
5762;SDS011;2906;53.282;9.508;2023-04-15T04:56:47;24.00;;;9.32;;
5762;SDS011;2906;53.282;9.508;2023-04-15T04:57:50;21.85;;;8.80;;
5762;SDS011;2906;53.282;9.508;2023-04-15T04:58:51;22.55;;;10.00;;
5762;SDS011;2906;53.282;9.508;2023-04-15T04:59:53;19.80;;;8.65;;
5762;SDS011;2906;53.282;9.508;2023-04-15T05:00:55;21.35;;;8.50;;
5762;SDS011;2906;53.282;9.508;2023-04-15T05:01:57;21.27;;;8.40;;
5762;SDS011;2906;53.282;9.508;2023-04-15T05:02:58;20.83;;;9.18;;
5762;SDS011;2906;53.282;9.508;2023-04-15T05:04:02;21.60;;;8.82;;
5762;SDS011;2906;53.282;9.508;2023-04-15T05:05:04;26.25;;;9.75;;
5762;SDS011;2906;53.282;9.508;2023-04-15T05:06:06;21.13;;;8.50;;
5762;SDS011;2906;53.282;9.508;2023-04-15T05:07:09;19.45;;;8.20;;
5762;SDS011;2906;53.282;9.508;2023-04-15T05:08:10;21.73;;;8.70;;
5762;SDS011;2906;53.282;9.508;2023-04-15T05:09:12;24.27;;;10.32;;
5762;SDS011;2906;53.282;9.508;2023-04-15T05:10:14;20.30;;;8.77;;
5762;SDS011;2906;53.282;9.508;2023-04-15T05:11:17;21.33;;;8.15;;
5762;SDS011;2906;53.282;9.508;2023-04-15T05:12:18;22.73;;;8.60;;
5762;SDS011;2906;53.282;9.508;2023-04-15T05:13:20;20.50;;;8.40;;
5762;SDS011;2906;53.282;9.508;2023-04-15T05:14:22;19.65;;;8.20;;
5762;SDS011;2906;53.282;9.508;2023-04-15T05:15:24;21.95;;;8.93;;
5762;SDS011;2906;53.282;9.508;2023-04-15T05:16:25;23.10;;;8.35;;
5762;SDS011;2906;53.282;9.508;2023-04-15T05:17:30;20.88;;;8.63;;
5762;SDS011;2906;53.282;9.508;2023-04-15T05:18:34;20.52;;;8.40;;
5762;SDS011;2906;53.282;9.508;2023-04-15T05:19:38;20.90;;;8.27;;
5762;SDS011;2906;53.282;9.508;2023-04-15T05:20:39;22.25;;;8.57;;
5762;SDS011;2906;53.282;9.508;2023-04-15T05:21:41;21.45;;;8.93;;
5762;SDS011;2906;53.282;9.508;2023-04-15T05:22:43;21.08;;;8.05;;
5762;SDS011;2906;53.282;9.508;2023-04-15T05:23:45;22.65;;;8.82;;
5762;SDS011;2906;53.282;9.508;2023-04-15T05:24:46;19.45;;;7.20;;
5762;SDS011;2906;53.282;9.508;2023-04-15T05:25:48;20.30;;;8.02;;
5762;SDS011;2906;53.282;9.508;2023-04-15T05:26:50;21.70;;;7.93;;
5762;SDS011;2906;53.282;9.508;2023-04-15T05:27:52;18.50;;;7.97;;
5762;SDS011;2906;53.282;9.508;2023-04-15T05:28:54;20.02;;;7.90;;
5762;SDS011;2906;53.282;9.508;2023-04-15T05:29:56;24.63;;;8.60;;
5762;SDS011;2906;53.282;9.508;2023-04-15T05:30:58;20.90;;;8.40;;
5762;SDS011;2906;53.282;9.508;2023-04-15T05:31:59;19.67;;;8.80;;
5762;SDS011;2906;53.282;9.508;2023-04-15T05:33:02;19.10;;;7.43;;
5762;SDS011;2906;53.282;9.508;2023-04-15T05:34:03;18.42;;;7.55;;
5762;SDS011;2906;53.282;9.508;2023-04-15T05:35:07;20.92;;;8.45;;
5762;SDS011;2906;53.282;9.508;2023-04-15T05:36:09;21.10;;;8.73;;
5762;SDS011;2906;53.282;9.508;2023-04-15T05:37:11;19.52;;;8.65;;
5762;SDS011;2906;53.282;9.508;2023-04-15T05:38:14;21.40;;;9.52;;
5762;SDS011;2906;53.282;9.508;2023-04-15T05:39:15;21.40;;;8.88;;
5762;SDS011;2906;53.282;9.508;2023-04-15T05:40:17;19.63;;;8.57;;
5762;SDS011;2906;53.282;9.508;2023-04-15T05:41:21;20.77;;;8.20;;
5762;SDS011;2906;53.282;9.508;2023-04-15T05:42:24;24.30;;;9.38;;
5762;SDS011;2906;53.282;9.508;2023-04-15T05:43:25;22.13;;;8.85;;
5762;SDS011;2906;53.282;9.508;2023-04-15T05:44:27;22.88;;;8.65;;
5762;SDS011;2906;53.282;9.508;2023-04-15T05:45:29;20.48;;;8.95;;
5762;SDS011;2906;53.282;9.508;2023-04-15T05:46:31;21.75;;;9.15;;
5762;SDS011;2906;53.282;9.508;2023-04-15T05:47:33;20.08;;;8.85;;
5762;SDS011;2906;53.282;9.508;2023-04-15T05:48:35;18.70;;;8.68;;
5762;SDS011;2906;53.282;9.508;2023-04-15T05:49:36;20.63;;;8.80;;
5762;SDS011;2906;53.282;9.508;2023-04-15T05:50:40;19.70;;;8.52;;
5762;SDS011;2906;53.282;9.508;2023-04-15T05:51:42;21.75;;;8.50;;
5762;SDS011;2906;53.282;9.508;2023-04-15T05:52:44;20.88;;;8.50;;
5762;SDS011;2906;53.282;9.508;2023-04-15T05:53:46;22.38;;;9.60;;
5762;SDS011;2906;53.282;9.508;2023-04-15T05:54:48;23.05;;;9.13;;
5762;SDS011;2906;53.282;9.508;2023-04-15T05:55:49;23.05;;;9.80;;
5762;SDS011;2906;53.282;9.508;2023-04-15T05:56:54;24.98;;;9.90;;
5762;SDS011;2906;53.282;9.508;2023-04-15T05:57:56;22.60;;;9.48;;
5762;SDS011;2906;53.282;9.508;2023-04-15T05:58:58;23.90;;;9.38;;
5762;SDS011;2906;53.282;9.508;2023-04-15T06:00:00;22.70;;;9.90;;
5762;SDS011;2906;53.282;9.508;2023-04-15T06:01:04;20.98;;;8.82;;
5762;SDS011;2906;53.282;9.508;2023-04-15T06:02:06;21.98;;;9.55;;
5762;SDS011;2906;53.282;9.508;2023-04-15T06:03:08;21.70;;;9.15;;
5762;SDS011;2906;53.282;9.508;2023-04-15T06:04:11;21.60;;;9.15;;
5762;SDS011;2906;53.282;9.508;2023-04-15T06:05:15;22.67;;;9.05;;
5762;SDS011;2906;53.282;9.508;2023-04-15T06:06:19;20.67;;;8.02;;
5762;SDS011;2906;53.282;9.508;2023-04-15T06:07:21;24.58;;;9.90;;
5762;SDS011;2906;53.282;9.508;2023-04-15T06:08:23;19.67;;;8.15;;
5762;SDS011;2906;53.282;9.508;2023-04-15T06:09:24;18.75;;;8.23;;
5762;SDS011;2906;53.282;9.508;2023-04-15T06:10:27;20.45;;;8.75;;
5762;SDS011;2906;53.282;9.508;2023-04-15T06:11:29;20.75;;;8.55;;
5762;SDS011;2906;53.282;9.508;2023-04-15T06:12:32;19.02;;;8.02;;
5762;SDS011;2906;53.282;9.508;2023-04-15T06:13:33;19.45;;;8.18;;
5762;SDS011;2906;53.282;9.508;2023-04-15T06:14:35;20.40;;;8.35;;
5762;SDS011;2906;53.282;9.508;2023-04-15T06:15:37;21.02;;;8.27;;
5762;SDS011;2906;53.282;9.508;2023-04-15T06:16:39;20.13;;;8.77;;
5762;SDS011;2906;53.282;9.508;2023-04-15T06:17:41;21.70;;;8.30;;
5762;SDS011;2906;53.282;9.508;2023-04-15T06:18:43;19.58;;;7.93;;
5762;SDS011;2906;53.282;9.508;2023-04-15T06:19:45;22.88;;;8.60;;